createdAt,value
2022-10-12T00:00:06.770Z,23.85
2022-10-12T00:02:34.319Z,23.88
2022-10-12T00:05:01.767Z,26.65
2022-10-12T00:07:29.275Z,23.05
2022-10-12T00:09:58.132Z,19.90
2022-10-12T00:12:25.857Z,21.15
2022-10-12T00:14:53.467Z,21.60
2022-10-12T00:17:21.012Z,24.77
2022-10-12T00:19:50.384Z,22.25
2022-10-12T00:22:17.799Z,20.67
2022-10-12T00:24:45.231Z,21.50
2022-10-12T00:27:12.678Z,26.60
2022-10-12T00:29:40.185Z,20.45
2022-10-12T00:32:07.691Z,23.38
2022-10-12T00:34:35.176Z,18.58
2022-10-12T00:37:02.628Z,20.52
2022-10-12T00:39:30.071Z,17.60
2022-10-12T00:41:57.554Z,22.17
2022-10-12T00:44:45.687Z,22.40
2022-10-12T00:47:19.379Z,22.88
2022-10-12T00:50:00.663Z,19.52
2022-10-12T00:52:45.499Z,17.42
2022-10-12T00:55:16.625Z,14.52
2022-10-12T01:00:18.901Z,23.17
2022-10-12T01:02:49.017Z,15.65
2022-10-12T01:05:18.296Z,18.35
2022-10-12T01:07:45.703Z,13.82
2022-10-12T01:10:13.315Z,16.70
2022-10-12T01:12:43.635Z,14.48
2022-10-12T01:15:11.940Z,19.80
2022-10-12T01:18:02.416Z,17.75
2022-10-12T01:20:49.727Z,14.27
2022-10-12T01:23:17.112Z,19.13
2022-10-12T01:25:59.166Z,17.15
2022-10-12T01:28:49.175Z,16.10
2022-10-12T01:31:32.599Z,18.48
2022-10-12T01:34:05.485Z,18.55
2022-10-12T01:36:52.701Z,17.33
2022-10-12T01:39:33.290Z,15.38
2022-10-12T01:42:09.575Z,27.63
2022-10-12T01:44:40.522Z,12.45
2022-10-12T01:47:10.129Z,16.60
2022-10-12T01:49:38.062Z,16.58
2022-10-12T01:52:37.892Z,16.33
2022-10-12T01:55:08.361Z,15.48
2022-10-12T01:57:50.504Z,15.25
2022-10-12T02:00:18.752Z,19.40
2022-10-12T02:03:04.218Z,12.63
2022-10-12T02:05:52.592Z,14.35
2022-10-12T02:08:33.513Z,18.88
2022-10-12T02:11:11.832Z,13.38
2022-10-12T02:13:44.667Z,10.27
2022-10-12T02:16:17.195Z,16.27
2022-10-12T02:18:49.857Z,18.70
2022-10-12T02:21:22.005Z,18.40
2022-10-12T02:23:51.567Z,16.85
2022-10-12T02:26:20.611Z,16.30
2022-10-12T02:28:50.775Z,25.23
2022-10-12T02:31:47.667Z,17.83
2022-10-12T02:34:18.968Z,17.05
2022-10-12T02:39:23.698Z,11.90
2022-10-12T02:41:57.025Z,15.68
2022-10-12T02:44:30.056Z,20.80
2022-10-12T02:46:59.368Z,19.95
2022-10-12T02:49:28.954Z,10.95
2022-10-12T02:51:57.561Z,18.38
2022-10-12T02:54:25.195Z,18.65
2022-10-12T02:56:52.546Z,15.48
2022-10-12T02:59:20.206Z,15.40
2022-10-12T03:01:48.189Z,14.40
2022-10-12T03:04:15.937Z,17.30
2022-10-12T03:06:43.469Z,18.70
2022-10-12T03:09:11.154Z,17.63
2022-10-12T03:11:43.690Z,17.48
2022-10-12T03:14:12.340Z,14.60
2022-10-12T03:16:39.716Z,16.98
2022-10-12T03:19:07.672Z,15.68
2022-10-12T03:21:35.216Z,18.58
2022-10-12T03:24:02.588Z,13.55
2022-10-12T03:26:29.970Z,13.27
2022-10-12T03:28:57.413Z,13.23
2022-10-12T03:31:25.058Z,21.75
2022-10-12T03:33:52.441Z,11.73
2022-10-12T03:36:19.915Z,16.00
2022-10-12T03:38:47.370Z,15.27
2022-10-12T03:41:14.838Z,14.68
2022-10-12T03:43:42.219Z,11.30
2022-10-12T03:46:09.617Z,16.35
2022-10-12T03:48:36.996Z,13.98
2022-10-12T03:51:04.538Z,12.82
2022-10-12T03:53:31.896Z,10.95
2022-10-12T03:55:59.396Z,12.82
2022-10-12T03:58:26.820Z,17.13
2022-10-12T04:00:55.110Z,16.23
2022-10-12T04:03:22.809Z,13.65
2022-10-12T04:05:57.115Z,10.23
2022-10-12T04:08:26.933Z,12.00
2022-10-12T04:10:55.105Z,16.77
2022-10-12T04:13:22.768Z,17.13
2022-10-12T04:15:50.298Z,17.20
2022-10-12T04:18:17.794Z,13.27
2022-10-12T04:20:48.376Z,17.33
2022-10-12T04:23:16.163Z,16.33
2022-10-12T04:25:43.637Z,13.18
2022-10-12T04:28:11.051Z,17.05
2022-10-12T04:30:38.808Z,27.52
2022-10-12T04:33:06.367Z,17.63
2022-10-12T04:35:34.187Z,20.80
2022-10-12T04:38:01.664Z,21.38
2022-10-12T04:40:29.102Z,18.85
2022-10-12T04:42:56.607Z,24.15
2022-10-12T04:45:24.179Z,18.20
2022-10-12T04:47:51.602Z,20.20
2022-10-12T04:50:19.020Z,18.73
2022-10-12T04:52:46.514Z,23.42
2022-10-12T04:55:14.071Z,23.33
2022-10-12T04:57:41.553Z,26.23
2022-10-12T05:00:09.919Z,20.77
2022-10-12T05:02:37.343Z,22.75
2022-10-12T05:05:05.023Z,28.35
2022-10-12T05:07:32.386Z,22.50
2022-10-12T05:09:59.956Z,16.33
2022-10-12T05:12:27.333Z,21.90
2022-10-12T05:14:54.705Z,17.75
2022-10-12T05:17:22.069Z,21.95
2022-10-12T05:19:49.476Z,24.17
2022-10-12T05:22:16.884Z,20.77
2022-10-12T05:24:44.339Z,26.42
2022-10-12T05:27:11.690Z,19.23
2022-10-12T05:29:39.090Z,22.52
2022-10-12T05:32:06.510Z,23.95
2022-10-12T05:34:34.195Z,22.23
2022-10-12T05:37:01.666Z,24.55
2022-10-12T05:39:29.147Z,24.20
2022-10-12T05:41:56.568Z,22.00
2022-10-12T05:44:24.084Z,24.10
2022-10-12T05:46:51.510Z,24.30
2022-10-12T05:49:19.038Z,30.08
2022-10-12T05:51:46.577Z,27.20
2022-10-12T05:54:14.032Z,19.80
2022-10-12T05:56:41.419Z,23.98
2022-10-12T05:59:08.813Z,23.17
2022-10-12T06:01:36.418Z,26.45
2022-10-12T06:04:04.945Z,21.10
2022-10-12T06:06:32.462Z,24.17
2022-10-12T06:08:59.834Z,18.13
2022-10-12T06:11:28.625Z,23.27
2022-10-12T06:13:57.784Z,29.70
2022-10-12T06:16:25.242Z,24.35
2022-10-12T06:18:53.276Z,26.05
2022-10-12T06:21:33.107Z,23.70
2022-10-12T06:24:02.011Z,17.23
2022-10-12T06:26:29.443Z,28.30
2022-10-12T06:28:56.922Z,24.05
2022-10-12T06:31:24.463Z,25.10
2022-10-12T06:33:52.472Z,22.45
2022-10-12T06:36:20.758Z,21.65
2022-10-12T06:38:48.180Z,21.58
2022-10-12T06:41:15.594Z,22.25
2022-10-12T06:43:43.096Z,19.05
2022-10-12T06:46:10.712Z,22.02
2022-10-12T06:48:38.247Z,26.70
2022-10-12T06:51:05.883Z,22.10
2022-10-12T06:53:35.029Z,20.88
2022-10-12T06:56:10.243Z,26.30
2022-10-12T06:58:37.938Z,26.92
2022-10-12T07:01:07.675Z,22.33
2022-10-12T07:03:35.266Z,27.65
2022-10-12T07:06:11.168Z,22.23
2022-10-12T07:08:41.037Z,24.08
2022-10-12T07:11:11.178Z,21.73
2022-10-12T07:13:38.729Z,20.23
2022-10-12T07:16:06.544Z,22.17
2022-10-12T07:18:34.169Z,21.42
2022-10-12T07:21:02.906Z,19.25
2022-10-12T07:23:32.018Z,18.75
2022-10-12T07:25:59.822Z,17.65
2022-10-12T07:28:28.218Z,28.50
2022-10-12T07:31:01.120Z,23.17
2022-10-12T07:33:32.289Z,21.73
2022-10-12T07:36:20.880Z,23.13
2022-10-12T07:38:48.833Z,26.65
2022-10-12T07:41:16.638Z,23.05
2022-10-12T07:43:44.193Z,22.10
2022-10-12T07:46:12.090Z,20.95
2022-10-12T07:48:45.694Z,21.50
2022-10-12T07:51:16.453Z,23.20
2022-10-12T07:53:43.910Z,24.60
2022-10-12T07:56:15.335Z,21.58
2022-10-12T07:58:53.955Z,16.35
2022-10-12T08:01:24.732Z,19.23
2022-10-12T08:03:56.306Z,21.05
2022-10-12T08:06:28.546Z,19.35
2022-10-12T08:08:58.806Z,11.23
2022-10-12T08:11:26.384Z,12.40
2022-10-12T08:13:53.789Z,19.15
2022-10-12T08:16:22.390Z,17.38
2022-10-12T08:18:49.971Z,12.90
2022-10-12T08:21:17.939Z,14.35
2022-10-12T08:23:46.219Z,10.50
2022-10-12T08:26:14.938Z,11.25
2022-10-12T08:28:42.532Z,15.15
2022-10-12T08:31:13.729Z,14.55
2022-10-12T08:36:09.428Z,14.05
2022-10-12T08:38:43.299Z,16.80
2022-10-12T08:41:40.254Z,11.38
2022-10-12T08:44:23.057Z,14.57
2022-10-12T08:46:59.334Z,5.90
2022-10-12T08:49:29.672Z,12.63
2022-10-12T08:52:02.787Z,14.48
2022-10-12T08:54:35.364Z,17.88
2022-10-12T08:57:02.736Z,15.30
2022-10-12T08:59:33.109Z,21.73
2022-10-12T09:02:32.559Z,52.00
2022-10-12T09:05:10.859Z,11.00
2022-10-12T09:07:53.115Z,13.05
2022-10-12T09:10:44.650Z,10.75
2022-10-12T09:13:33.469Z,10.57
2022-10-12T09:16:06.112Z,17.13
2022-10-12T09:18:49.665Z,15.60
2022-10-12T09:21:19.111Z,10.05
2022-10-12T09:23:47.893Z,12.73
2022-10-12T09:26:18.576Z,14.50
2022-10-12T09:28:51.003Z,8.32
2022-10-12T09:31:30.461Z,12.95
2022-10-12T09:34:00.207Z,12.82
2022-10-12T09:36:39.828Z,10.18
2022-10-12T09:39:19.987Z,17.38
2022-10-12T09:41:49.282Z,13.57
2022-10-12T09:44:36.686Z,10.55
2022-10-12T09:47:07.034Z,10.75
2022-10-12T09:49:47.618Z,14.48
2022-10-12T09:52:19.382Z,12.63
2022-10-12T09:54:49.250Z,8.73
2022-10-12T09:57:39.186Z,15.95
2022-10-12T10:00:28.820Z,13.45
2022-10-12T10:02:56.795Z,14.15
2022-10-12T10:05:30.005Z,14.77
2022-10-12T10:08:14.881Z,13.77
2022-10-12T10:10:59.512Z,13.88
2022-10-12T10:13:30.557Z,16.35
2022-10-12T10:16:10.257Z,13.00
2022-10-12T10:19:00.076Z,11.43
2022-10-12T10:21:29.586Z,10.45
2022-10-12T10:24:02.701Z,12.77
2022-10-12T10:26:51.298Z,13.07
2022-10-12T10:29:33.436Z,17.63
2022-10-12T10:32:12.526Z,12.38
2022-10-12T10:34:42.742Z,9.10
2022-10-12T10:37:23.343Z,7.80
2022-10-12T10:39:56.609Z,8.02
2022-10-12T10:42:33.410Z,12.43
2022-10-12T10:45:04.231Z,9.50
2022-10-12T10:47:33.986Z,9.52
2022-10-12T10:50:06.838Z,13.93
2022-10-12T10:52:37.164Z,12.35
2022-10-12T10:55:21.323Z,12.73
2022-10-12T10:58:02.785Z,9.07
2022-10-12T11:00:39.292Z,9.45
2022-10-12T11:06:23.162Z,14.32
2022-10-12T11:09:04.806Z,16.38
2022-10-12T11:11:36.291Z,15.10
2022-10-12T11:14:14.202Z,10.10
2022-10-12T11:16:56.685Z,7.82
2022-10-12T11:19:32.024Z,10.85
2022-10-12T11:22:14.649Z,11.23
2022-10-12T11:24:52.798Z,11.93
2022-10-12T11:27:39.593Z,16.15
2022-10-12T11:30:17.334Z,10.70
2022-10-12T11:33:08.446Z,12.73
2022-10-12T11:38:23.497Z,11.98
2022-10-12T11:41:13.927Z,17.75
2022-10-12T11:43:44.719Z,14.43
2022-10-12T11:46:16.402Z,12.90
2022-10-12T11:48:47.152Z,16.38
2022-10-12T11:51:14.545Z,12.82
2022-10-12T11:53:53.683Z,13.60
2022-10-12T11:56:41.182Z,11.98
2022-10-12T11:59:31.931Z,12.18
2022-10-12T12:02:31.614Z,12.98
2022-10-12T12:04:59.305Z,10.77
2022-10-12T12:07:43.375Z,12.27
2022-10-12T12:10:34.965Z,13.68
2022-10-12T12:13:14.885Z,14.27
2022-10-12T12:15:43.668Z,9.57
2022-10-12T12:18:19.786Z,13.80
2022-10-12T12:20:47.123Z,14.75
2022-10-12T12:23:35.220Z,9.90
2022-10-12T12:26:16.155Z,11.18
2022-10-12T12:29:09.644Z,14.35
2022-10-12T12:31:37.552Z,16.90
2022-10-12T12:34:15.263Z,17.90
2022-10-12T12:36:45.370Z,11.50
2022-10-12T12:39:22.145Z,17.20
2022-10-12T12:41:59.060Z,9.85
2022-10-12T12:44:34.664Z,12.50
2022-10-12T12:47:02.010Z,17.63
2022-10-12T12:49:55.719Z,15.23
2022-10-12T12:52:37.989Z,8.20
2022-10-12T12:55:14.050Z,12.85
2022-10-12T12:58:06.658Z,8.85
2022-10-12T13:00:55.141Z,12.40
2022-10-12T13:03:25.513Z,12.93
2022-10-12T13:06:28.977Z,8.07
2022-10-12T13:09:10.193Z,9.05
2022-10-12T13:11:59.943Z,7.93
2022-10-12T13:14:27.381Z,8.75
2022-10-12T13:17:31.815Z,14.77
2022-10-12T13:19:58.169Z,12.57
2022-10-12T13:22:33.896Z,11.73
2022-10-12T13:25:07.601Z,13.35
2022-10-12T13:27:48.442Z,13.45
2022-10-12T13:30:33.925Z,10.60
2022-10-12T13:33:20.751Z,7.85
2022-10-12T13:36:27.123Z,14.65
2022-10-12T13:39:00.242Z,11.07
2022-10-12T13:41:31.532Z,13.32
2022-10-12T13:44:01.761Z,10.57
2022-10-12T13:46:41.023Z,8.15
2022-10-12T13:49:27.207Z,10.52
2022-10-12T13:52:11.025Z,30.85
2022-10-12T13:54:48.798Z,25.90
2022-10-12T13:57:37.922Z,13.10
2022-10-12T14:00:15.606Z,7.97
2022-10-12T14:02:53.368Z,9.80
2022-10-12T14:05:24.059Z,8.65
2022-10-12T14:08:00.145Z,9.02
2022-10-12T14:10:34.428Z,10.10
2022-10-12T14:13:02.512Z,11.18
2022-10-12T14:15:39.308Z,5.10
2022-10-12T14:18:42.153Z,7.32
2022-10-12T14:21:15.440Z,12.15
2022-10-12T14:23:48.040Z,5.53
2022-10-12T14:26:32.352Z,11.27
2022-10-12T14:29:00.209Z,10.48
2022-10-12T14:31:53.754Z,7.20
2022-10-12T14:34:28.043Z,7.40
2022-10-12T14:37:09.251Z,9.38
2022-10-12T14:39:37.119Z,4.28
2022-10-12T14:42:34.597Z,7.93
2022-10-12T14:45:06.395Z,8.27
2022-10-12T14:47:40.786Z,9.65
2022-10-12T14:50:09.798Z,11.50
2022-10-12T14:52:44.589Z,4.57
2022-10-12T14:55:21.897Z,9.75
2022-10-12T14:57:50.490Z,10.88
2022-10-12T15:00:20.685Z,5.22
2022-10-12T15:02:48.448Z,8.70
2022-10-12T15:05:21.282Z,5.32
2022-10-12T15:07:49.645Z,11.23
2022-10-12T15:10:19.624Z,8.00
2022-10-12T15:12:47.155Z,10.25
2022-10-12T15:15:43.287Z,11.18
2022-10-12T15:18:10.670Z,9.52
2022-10-12T15:20:39.057Z,12.35
2022-10-12T15:23:06.606Z,12.98
2022-10-12T15:25:50.849Z,14.50
2022-10-12T15:28:19.057Z,11.50
2022-10-12T15:31:12.210Z,12.50
2022-10-12T15:33:34.100Z,8.20
2022-10-12T15:36:01.718Z,9.02
2022-10-12T15:38:29.309Z,8.70
2022-10-12T15:40:58.294Z,9.25
2022-10-12T15:43:26.311Z,8.65
2022-10-12T15:45:56.465Z,6.55
2022-10-12T15:48:24.012Z,11.27
2022-10-12T15:50:51.804Z,7.95
2022-10-12T15:53:25.877Z,10.82
2022-10-12T15:55:54.222Z,7.82
2022-10-12T15:58:22.116Z,10.30
2022-10-12T16:00:49.759Z,13.00
2022-10-12T16:03:25.223Z,7.68
2022-10-12T16:05:54.386Z,9.57
2022-10-12T16:08:21.817Z,11.68
2022-10-12T16:10:49.754Z,11.18
2022-10-12T16:13:17.694Z,9.02
2022-10-12T16:15:45.265Z,9.10
2022-10-12T16:18:17.576Z,9.20
2022-10-12T16:20:50.995Z,8.80
2022-10-12T16:23:29.471Z,12.55
2022-10-12T16:25:58.216Z,11.98
2022-10-12T16:28:26.474Z,14.45
2022-10-12T16:30:54.416Z,11.25
2022-10-12T16:33:22.182Z,7.63
2022-10-12T16:35:49.614Z,9.23
2022-10-12T16:38:20.254Z,9.70
2022-10-12T16:40:50.736Z,17.45
2022-10-12T16:43:19.393Z,8.55
2022-10-12T16:45:55.166Z,22.25
2022-10-12T16:48:22.630Z,11.73
2022-10-12T16:50:49.973Z,9.07
2022-10-12T16:53:17.395Z,13.85
2022-10-12T16:55:44.871Z,13.27
2022-10-12T16:58:12.218Z,7.47
2022-10-12T17:00:41.104Z,10.52
2022-10-12T17:03:08.939Z,11.63
2022-10-12T17:05:36.652Z,10.65
2022-10-12T17:08:05.361Z,6.43
2022-10-12T17:10:32.745Z,10.25
2022-10-12T17:13:00.110Z,11.35
2022-10-12T17:15:27.591Z,6.93
2022-10-12T17:17:55.116Z,7.15
2022-10-12T17:20:22.613Z,11.18
2022-10-12T17:22:50.019Z,7.03
2022-10-12T17:25:17.575Z,12.25
2022-10-12T17:27:44.911Z,5.75
2022-10-12T17:30:12.615Z,12.20
2022-10-12T17:32:41.633Z,9.10
2022-10-12T17:35:09.452Z,7.00
2022-10-12T17:37:36.862Z,7.63
2022-10-12T17:40:04.679Z,7.43
2022-10-12T17:42:32.071Z,5.90
2022-10-12T17:44:59.466Z,8.55
2022-10-12T17:47:26.945Z,7.45
2022-10-12T17:49:54.332Z,13.45
2022-10-12T17:52:21.776Z,8.32
2022-10-12T17:54:49.221Z,6.53
2022-10-12T17:57:16.907Z,10.32
2022-10-12T17:59:44.556Z,5.82
2022-10-12T18:02:12.053Z,7.30
2022-10-12T18:04:39.497Z,8.98
2022-10-12T18:07:06.878Z,9.00
2022-10-12T18:09:34.529Z,7.38
2022-10-12T18:12:02.441Z,8.98
2022-10-12T18:14:30.064Z,7.35
2022-10-12T18:16:58.789Z,10.90
2022-10-12T18:19:26.214Z,7.45
2022-10-12T18:21:53.636Z,20.63
2022-10-12T18:24:23.217Z,7.50
2022-10-12T18:26:50.753Z,8.25
2022-10-12T18:29:18.569Z,7.50
2022-10-12T18:31:46.097Z,8.48
2022-10-12T18:34:13.546Z,9.73
2022-10-12T18:36:42.840Z,7.97
2022-10-12T18:39:10.352Z,6.03
2022-10-12T18:41:37.803Z,13.18
2022-10-12T18:44:05.263Z,6.78
2022-10-12T18:46:36.704Z,11.40
2022-10-12T18:49:08.131Z,6.05
2022-10-12T18:51:39.115Z,8.85
2022-10-12T18:56:36.643Z,9.00
2022-10-12T18:59:04.744Z,11.07
2022-10-12T19:01:33.055Z,5.80
2022-10-12T19:04:02.020Z,8.43
2022-10-12T19:06:32.085Z,8.45
2022-10-12T19:09:01.314Z,9.18
2022-10-12T19:11:29.995Z,8.50
2022-10-12T19:14:00.569Z,11.38
2022-10-12T19:16:28.390Z,10.63
2022-10-12T19:18:57.792Z,9.80
2022-10-12T19:21:26.067Z,8.40
2022-10-12T19:23:53.772Z,10.80
2022-10-12T19:26:25.410Z,14.32
2022-10-12T19:28:55.040Z,8.30
2022-10-12T19:31:44.327Z,12.40
2022-10-12T19:34:15.128Z,11.50
2022-10-12T19:36:43.781Z,9.30
2022-10-12T19:39:22.498Z,14.70
2022-10-12T19:41:51.038Z,12.70
2022-10-12T19:44:19.367Z,10.98
2022-10-12T19:46:51.125Z,10.60
2022-10-12T19:49:20.953Z,10.15
2022-10-12T19:51:48.397Z,15.25
2022-10-12T19:54:16.359Z,14.80
2022-10-12T19:56:43.830Z,11.05
2022-10-12T19:59:11.748Z,10.43
2022-10-12T20:01:39.904Z,17.20
2022-10-12T20:04:10.045Z,13.93
2022-10-12T20:06:38.278Z,10.25
2022-10-12T20:09:07.562Z,17.85
2022-10-12T20:11:35.520Z,11.88
2022-10-12T20:14:03.369Z,11.75
2022-10-12T20:16:34.835Z,14.43
2022-10-12T20:19:03.906Z,10.82
2022-10-12T20:21:31.702Z,10.00
2022-10-12T20:23:59.169Z,6.43
2022-10-12T20:26:26.962Z,13.00
2022-10-12T20:28:55.198Z,11.50
2022-10-12T20:31:27.437Z,11.23
2022-10-12T20:33:56.016Z,13.02
2022-10-12T20:36:26.910Z,10.57
2022-10-12T20:41:23.253Z,11.57
2022-10-12T20:43:57.842Z,13.10
2022-10-12T20:46:26.217Z,13.02
2022-10-12T20:48:58.863Z,12.27
2022-10-12T20:51:29.125Z,14.82
2022-10-12T20:54:01.148Z,14.48
2022-10-12T20:56:33.342Z,11.07
2022-10-12T20:59:01.817Z,15.68
2022-10-12T21:01:29.401Z,11.45
2022-10-12T21:03:57.443Z,12.23
2022-10-12T21:06:26.530Z,15.18
2022-10-12T21:08:55.808Z,11.80
2022-10-12T21:11:23.874Z,12.77
2022-10-12T21:13:51.388Z,11.68
2022-10-12T21:16:19.159Z,13.05
2022-10-12T21:18:46.736Z,9.90
2022-10-12T21:21:19.080Z,10.88
2022-10-12T21:24:13.517Z,15.05
2022-10-12T21:26:41.089Z,10.63
2022-10-12T21:29:08.895Z,12.15
2022-10-12T21:31:36.500Z,13.05
2022-10-12T21:34:06.321Z,14.60
2022-10-12T21:36:36.474Z,15.65
2022-10-12T21:39:09.429Z,11.73
2022-10-12T21:41:36.880Z,12.55
2022-10-12T21:44:04.449Z,11.88
2022-10-12T21:46:33.970Z,16.45
2022-10-12T21:49:03.781Z,12.90
2022-10-12T21:51:32.320Z,11.18
2022-10-12T21:53:59.816Z,14.88
2022-10-12T21:56:29.887Z,18.88
2022-10-12T21:58:59.887Z,12.53
2022-10-12T22:01:36.193Z,17.02
2022-10-12T22:04:13.720Z,14.82
2022-10-12T22:06:41.339Z,13.25
2022-10-12T22:09:12.656Z,9.70
2022-10-12T22:11:40.127Z,14.73
2022-10-12T22:14:11.229Z,20.25
2022-10-12T22:16:38.674Z,15.55
2022-10-12T22:19:08.426Z,16.30
2022-10-12T22:21:36.835Z,19.63
2022-10-12T22:24:04.421Z,19.48
2022-10-12T22:26:32.436Z,12.85
2022-10-12T22:29:00.368Z,24.92
2022-10-12T22:31:28.512Z,11.43
2022-10-12T22:33:56.298Z,11.45
2022-10-12T22:36:25.240Z,11.38
2022-10-12T22:38:52.687Z,16.95
2022-10-12T22:41:21.945Z,13.30
2022-10-12T22:43:56.927Z,17.95
2022-10-12T22:46:25.714Z,13.13
2022-10-12T22:48:54.293Z,13.27
2022-10-12T22:51:31.656Z,13.18
2022-10-12T22:54:00.426Z,17.17
2022-10-12T22:56:28.530Z,11.38
2022-10-12T22:58:58.555Z,10.65
2022-10-12T23:01:26.979Z,15.45
2022-10-12T23:03:55.301Z,19.65
2022-10-12T23:06:23.609Z,10.90
2022-10-12T23:08:51.689Z,16.42
2022-10-12T23:11:25.227Z,16.40
2022-10-12T23:13:54.118Z,12.32
2022-10-12T23:16:24.101Z,14.32
2022-10-12T23:18:59.213Z,17.43
2022-10-12T23:21:28.304Z,10.38
2022-10-12T23:23:55.897Z,16.75
2022-10-12T23:26:25.930Z,23.67
2022-10-12T23:28:54.027Z,16.20
2022-10-12T23:31:26.742Z,12.43
2022-10-12T23:33:59.731Z,14.00
2022-10-12T23:36:27.667Z,19.40
2022-10-12T23:38:55.104Z,14.63
2022-10-12T23:41:22.914Z,14.77
2022-10-12T23:43:50.388Z,11.10
2022-10-12T23:46:17.717Z,17.70
2022-10-12T23:48:45.211Z,11.25
2022-10-12T23:51:12.664Z,14.93
2022-10-12T23:53:41.936Z,18.08
2022-10-12T23:56:10.421Z,14.07
2022-10-12T23:58:38.483Z,11.40
